sensor_id;sensor_type;location;lat;lon;timestamp;P1;durP1;ratioP1;P2;durP2;ratioP2
30378;SDS011;17168;49.164;9.060;2024-03-02T00:01:14;18.85;;;10.20;;
30378;SDS011;17168;49.164;9.060;2024-03-02T00:03:46;18.25;;;10.60;;
30378;SDS011;17168;49.164;9.060;2024-03-02T00:06:19;19.08;;;10.60;;
30378;SDS011;17168;49.164;9.060;2024-03-02T00:08:56;18.45;;;10.30;;
30378;SDS011;17168;49.164;9.060;2024-03-02T00:11:29;21.65;;;11.70;;
30378;SDS011;17168;49.164;9.060;2024-03-02T00:14:02;19.08;;;10.45;;
30378;SDS011;17168;49.164;9.060;2024-03-02T00:16:37;20.15;;;11.13;;
30378;SDS011;17168;49.164;9.060;2024-03-02T00:19:09;18.15;;;10.20;;
30378;SDS011;17168;49.164;9.060;2024-03-02T00:21:42;18.55;;;10.70;;
30378;SDS011;17168;49.164;9.060;2024-03-02T00:24:17;20.60;;;12.25;;
30378;SDS011;17168;49.164;9.060;2024-03-02T00:26:53;20.52;;;11.32;;
30378;SDS011;17168;49.164;9.060;2024-03-02T00:29:25;21.77;;;11.18;;
30378;SDS011;17168;49.164;9.060;2024-03-02T00:32:01;23.17;;;12.07;;
30378;SDS011;17168;49.164;9.060;2024-03-02T00:34:34;22.52;;;10.55;;
30378;SDS011;17168;49.164;9.060;2024-03-02T00:37:06;18.83;;;10.95;;
30378;SDS011;17168;49.164;9.060;2024-03-02T00:39:39;20.00;;;10.85;;
30378;SDS011;17168;49.164;9.060;2024-03-02T00:42:11;18.77;;;11.13;;
30378;SDS011;17168;49.164;9.060;2024-03-02T00:44:44;19.58;;;10.98;;
30378;SDS011;17168;49.164;9.060;2024-03-02T00:47:18;18.75;;;10.93;;
30378;SDS011;17168;49.164;9.060;2024-03-02T00:49:50;20.00;;;11.43;;
30378;SDS011;17168;49.164;9.060;2024-03-02T00:52:23;21.67;;;10.82;;
30378;SDS011;17168;49.164;9.060;2024-03-02T00:54:57;19.75;;;11.23;;
30378;SDS011;17168;49.164;9.060;2024-03-02T00:57:29;17.48;;;10.27;;
30378;SDS011;17168;49.164;9.060;2024-03-02T01:00:06;19.77;;;11.05;;
30378;SDS011;17168;49.164;9.060;2024-03-02T01:02:44;19.35;;;10.63;;
30378;SDS011;17168;49.164;9.060;2024-03-02T01:05:17;18.77;;;11.15;;
30378;SDS011;17168;49.164;9.060;2024-03-02T01:07:50;19.40;;;10.52;;
30378;SDS011;17168;49.164;9.060;2024-03-02T01:10:22;17.20;;;9.95;;
30378;SDS011;17168;49.164;9.060;2024-03-02T01:12:54;16.98;;;10.10;;
30378;SDS011;17168;49.164;9.060;2024-03-02T01:15:26;17.40;;;9.63;;
30378;SDS011;17168;49.164;9.060;2024-03-02T01:18:01;16.90;;;10.70;;
30378;SDS011;17168;49.164;9.060;2024-03-02T01:20:34;18.52;;;9.77;;
30378;SDS011;17168;49.164;9.060;2024-03-02T01:23:06;17.88;;;10.73;;
30378;SDS011;17168;49.164;9.060;2024-03-02T01:25:38;18.55;;;10.43;;
30378;SDS011;17168;49.164;9.060;2024-03-02T01:28:10;18.13;;;10.07;;
30378;SDS011;17168;49.164;9.060;2024-03-02T01:30:42;17.75;;;9.93;;
30378;SDS011;17168;49.164;9.060;2024-03-02T01:33:17;15.85;;;9.15;;
30378;SDS011;17168;49.164;9.060;2024-03-02T01:35:50;18.92;;;10.45;;
30378;SDS011;17168;49.164;9.060;2024-03-02T01:38:22;19.52;;;10.02;;
30378;SDS011;17168;49.164;9.060;2024-03-02T01:40:54;19.08;;;10.20;;
30378;SDS011;17168;49.164;9.060;2024-03-02T01:43:28;18.77;;;10.77;;
30378;SDS011;17168;49.164;9.060;2024-03-02T01:46:00;16.15;;;9.50;;
30378;SDS011;17168;49.164;9.060;2024-03-02T01:48:35;19.30;;;10.35;;
30378;SDS011;17168;49.164;9.060;2024-03-02T01:51:07;18.13;;;10.20;;
30378;SDS011;17168;49.164;9.060;2024-03-02T01:53:40;19.65;;;9.73;;
30378;SDS011;17168;49.164;9.060;2024-03-02T01:56:12;18.40;;;10.20;;
30378;SDS011;17168;49.164;9.060;2024-03-02T01:58:44;18.67;;;10.43;;
30378;SDS011;17168;49.164;9.060;2024-03-02T02:01:17;14.82;;;8.48;;
30378;SDS011;17168;49.164;9.060;2024-03-02T02:03:51;19.80;;;9.88;;
30378;SDS011;17168;49.164;9.060;2024-03-02T02:06:24;18.15;;;9.65;;
30378;SDS011;17168;49.164;9.060;2024-03-02T02:08:56;16.27;;;9.98;;
30378;SDS011;17168;49.164;9.060;2024-03-02T02:11:28;16.75;;;10.30;;
30378;SDS011;17168;49.164;9.060;2024-03-02T02:14:01;18.90;;;10.23;;
30378;SDS011;17168;49.164;9.060;2024-03-02T02:16:33;16.20;;;9.40;;
30378;SDS011;17168;49.164;9.060;2024-03-02T02:19:08;16.58;;;9.10;;
30378;SDS011;17168;49.164;9.060;2024-03-02T02:21:44;17.00;;;9.75;;
30378;SDS011;17168;49.164;9.060;2024-03-02T02:24:16;17.88;;;9.73;;
30378;SDS011;17168;49.164;9.060;2024-03-02T02:26:49;17.13;;;9.55;;
30378;SDS011;17168;49.164;9.060;2024-03-02T02:29:21;14.45;;;9.20;;
30378;SDS011;17168;49.164;9.060;2024-03-02T02:31:53;18.08;;;10.20;;
30378;SDS011;17168;49.164;9.060;2024-03-02T02:34:25;17.15;;;9.15;;
30378;SDS011;17168;49.164;9.060;2024-03-02T02:37:00;14.55;;;8.57;;
30378;SDS011;17168;49.164;9.060;2024-03-02T02:39:32;16.70;;;8.82;;
30378;SDS011;17168;49.164;9.060;2024-03-02T02:42:05;15.38;;;9.40;;
30378;SDS011;17168;49.164;9.060;2024-03-02T02:44:38;14.40;;;8.85;;
30378;SDS011;17168;49.164;9.060;2024-03-02T02:47:10;17.33;;;9.57;;
30378;SDS011;17168;49.164;9.060;2024-03-02T02:49:42;15.98;;;8.85;;
30378;SDS011;17168;49.164;9.060;2024-03-02T02:52:17;15.25;;;8.63;;
30378;SDS011;17168;49.164;9.060;2024-03-02T02:54:50;15.98;;;8.93;;
30378;SDS011;17168;49.164;9.060;2024-03-02T02:57:23;16.02;;;8.00;;
30378;SDS011;17168;49.164;9.060;2024-03-02T02:59:55;14.50;;;7.88;;
30378;SDS011;17168;49.164;9.060;2024-03-02T03:02:27;13.68;;;7.95;;
30378;SDS011;17168;49.164;9.060;2024-03-02T03:04:59;16.42;;;8.80;;
30378;SDS011;17168;49.164;9.060;2024-03-02T03:07:34;15.18;;;8.02;;
30378;SDS011;17168;49.164;9.060;2024-03-02T03:10:08;19.23;;;10.00;;
30378;SDS011;17168;49.164;9.060;2024-03-02T03:12:40;14.93;;;8.23;;
30378;SDS011;17168;49.164;9.060;2024-03-02T03:15:15;15.68;;;8.07;;
30378;SDS011;17168;49.164;9.060;2024-03-02T03:17:48;16.48;;;8.43;;
30378;SDS011;17168;49.164;9.060;2024-03-02T03:20:20;17.35;;;8.50;;
30378;SDS011;17168;49.164;9.060;2024-03-02T03:22:57;15.93;;;7.60;;
30378;SDS011;17168;49.164;9.060;2024-03-02T03:25:29;15.55;;;8.15;;
30378;SDS011;17168;49.164;9.060;2024-03-02T03:28:02;16.98;;;7.95;;
30378;SDS011;17168;49.164;9.060;2024-03-02T03:30:34;17.63;;;8.48;;
30378;SDS011;17168;49.164;9.060;2024-03-02T03:33:07;14.85;;;7.80;;
30378;SDS011;17168;49.164;9.060;2024-03-02T03:35:39;16.00;;;8.20;;
30378;SDS011;17168;49.164;9.060;2024-03-02T03:38:14;18.90;;;9.27;;
30378;SDS011;17168;49.164;9.060;2024-03-02T03:40:46;14.70;;;8.45;;
30378;SDS011;17168;49.164;9.060;2024-03-02T03:43:19;19.02;;;8.82;;
30378;SDS011;17168;49.164;9.060;2024-03-02T03:45:51;16.45;;;9.27;;
30378;SDS011;17168;49.164;9.060;2024-03-02T03:48:23;17.95;;;8.95;;
30378;SDS011;17168;49.164;9.060;2024-03-02T03:51:02;14.15;;;7.78;;
30378;SDS011;17168;49.164;9.060;2024-03-02T03:53:37;14.68;;;8.57;;
30378;SDS011;17168;49.164;9.060;2024-03-02T03:56:09;14.23;;;7.50;;
30378;SDS011;17168;49.164;9.060;2024-03-02T03:58:43;16.50;;;8.20;;
30378;SDS011;17168;49.164;9.060;2024-03-02T04:01:15;17.65;;;8.30;;
30378;SDS011;17168;49.164;9.060;2024-03-02T04:03:48;17.40;;;9.65;;
30378;SDS011;17168;49.164;9.060;2024-03-02T04:06:20;17.67;;;8.00;;
30378;SDS011;17168;49.164;9.060;2024-03-02T04:08:55;18.20;;;8.18;;
30378;SDS011;17168;49.164;9.060;2024-03-02T04:11:27;19.08;;;9.82;;
30378;SDS011;17168;49.164;9.060;2024-03-02T04:13:59;18.73;;;8.05;;
30378;SDS011;17168;49.164;9.060;2024-03-02T04:16:31;16.27;;;7.63;;
30378;SDS011;17168;49.164;9.060;2024-03-02T04:19:03;16.55;;;8.40;;
30378;SDS011;17168;49.164;9.060;2024-03-02T04:21:36;18.38;;;7.82;;
30378;SDS011;17168;49.164;9.060;2024-03-02T04:24:11;16.58;;;7.82;;
30378;SDS011;17168;49.164;9.060;2024-03-02T04:26:43;18.45;;;8.85;;
30378;SDS011;17168;49.164;9.060;2024-03-02T04:29:15;17.75;;;8.98;;
30378;SDS011;17168;49.164;9.060;2024-03-02T04:31:47;18.88;;;9.07;;
30378;SDS011;17168;49.164;9.060;2024-03-02T04:34:20;17.45;;;9.57;;
30378;SDS011;17168;49.164;9.060;2024-03-02T04:36:52;16.23;;;8.10;;
30378;SDS011;17168;49.164;9.060;2024-03-02T04:39:27;17.75;;;7.97;;
30378;SDS011;17168;49.164;9.060;2024-03-02T04:42:00;16.73;;;8.82;;
30378;SDS011;17168;49.164;9.060;2024-03-02T04:44:32;20.20;;;9.15;;
30378;SDS011;17168;49.164;9.060;2024-03-02T04:47:04;19.45;;;9.20;;
30378;SDS011;17168;49.164;9.060;2024-03-02T04:49:36;19.42;;;8.85;;
30378;SDS011;17168;49.164;9.060;2024-03-02T04:52:09;16.27;;;8.15;;
30378;SDS011;17168;49.164;9.060;2024-03-02T04:54:44;16.88;;;8.75;;
30378;SDS011;17168;49.164;9.060;2024-03-02T04:57:34;18.67;;;8.68;;
30378;SDS011;17168;49.164;9.060;2024-03-02T05:00:07;19.15;;;8.65;;
30378;SDS011;17168;49.164;9.060;2024-03-02T05:02:40;22.13;;;8.90;;
30378;SDS011;17168;49.164;9.060;2024-03-02T05:05:13;19.92;;;10.20;;
30378;SDS011;17168;49.164;9.060;2024-03-02T05:07:47;19.50;;;8.75;;
30378;SDS011;17168;49.164;9.060;2024-03-02T05:10:21;17.17;;;8.85;;
30378;SDS011;17168;49.164;9.060;2024-03-02T05:12:53;16.85;;;8.38;;
30378;SDS011;17168;49.164;9.060;2024-03-02T05:15:31;18.17;;;8.68;;
30378;SDS011;17168;49.164;9.060;2024-03-02T05:18:04;17.63;;;8.65;;
30378;SDS011;17168;49.164;9.060;2024-03-02T05:20:37;16.63;;;8.35;;
30378;SDS011;17168;49.164;9.060;2024-03-02T05:23:09;18.75;;;9.02;;
30378;SDS011;17168;49.164;9.060;2024-03-02T05:25:44;18.75;;;8.32;;
30378;SDS011;17168;49.164;9.060;2024-03-02T05:28:16;17.60;;;7.75;;
30378;SDS011;17168;49.164;9.060;2024-03-02T05:30:49;17.33;;;8.07;;
30378;SDS011;17168;49.164;9.060;2024-03-02T05:33:21;15.40;;;8.13;;
30378;SDS011;17168;49.164;9.060;2024-03-02T05:35:54;15.32;;;6.95;;
30378;SDS011;17168;49.164;9.060;2024-03-02T05:38:26;15.13;;;7.38;;
30378;SDS011;17168;49.164;9.060;2024-03-02T05:41:01;17.20;;;7.57;;
30378;SDS011;17168;49.164;9.060;2024-03-02T05:43:34;14.70;;;7.70;;
30378;SDS011;17168;49.164;9.060;2024-03-02T05:46:06;15.98;;;7.80;;
30378;SDS011;17168;49.164;9.060;2024-03-02T05:48:38;18.95;;;7.93;;
30378;SDS011;17168;49.164;9.060;2024-03-02T05:51:10;17.48;;;7.57;;
30378;SDS011;17168;49.164;9.060;2024-03-02T05:53:42;16.52;;;8.23;;
30378;SDS011;17168;49.164;9.060;2024-03-02T05:56:17;17.08;;;8.20;;
30378;SDS011;17168;49.164;9.060;2024-03-02T05:58:49;14.32;;;7.70;;
30378;SDS011;17168;49.164;9.060;2024-03-02T06:01:45;17.40;;;7.95;;
30378;SDS011;17168;49.164;9.060;2024-03-02T06:04:23;13.48;;;6.47;;
30378;SDS011;17168;49.164;9.060;2024-03-02T06:06:56;13.80;;;7.07;;
30378;SDS011;17168;49.164;9.060;2024-03-02T06:09:28;16.42;;;8.23;;
30378;SDS011;17168;49.164;9.060;2024-03-02T06:12:03;16.35;;;7.68;;
30378;SDS011;17168;49.164;9.060;2024-03-02T06:14:35;16.80;;;7.53;;
30378;SDS011;17168;49.164;9.060;2024-03-02T06:17:08;16.77;;;8.75;;
30378;SDS011;17168;49.164;9.060;2024-03-02T06:19:40;18.40;;;8.63;;
30378;SDS011;17168;49.164;9.060;2024-03-02T06:22:12;17.70;;;8.10;;
30378;SDS011;17168;49.164;9.060;2024-03-02T06:24:44;17.83;;;8.95;;
30378;SDS011;17168;49.164;9.060;2024-03-02T06:27:19;20.52;;;9.07;;
30378;SDS011;17168;49.164;9.060;2024-03-02T06:29:51;17.23;;;7.68;;
30378;SDS011;17168;49.164;9.060;2024-03-02T06:32:23;21.42;;;9.60;;
30378;SDS011;17168;49.164;9.060;2024-03-02T06:34:56;20.65;;;9.60;;
30378;SDS011;17168;49.164;9.060;2024-03-02T06:37:29;18.88;;;8.48;;
30378;SDS011;17168;49.164;9.060;2024-03-02T06:40:01;17.02;;;8.57;;
30378;SDS011;17168;49.164;9.060;2024-03-02T06:45:14;17.67;;;8.88;;
30378;SDS011;17168;49.164;9.060;2024-03-02T06:47:46;34.50;;;17.30;;
30378;SDS011;17168;49.164;9.060;2024-03-02T06:50:18;43.35;;;20.27;;
30378;SDS011;17168;49.164;9.060;2024-03-02T06:52:51;47.38;;;21.08;;
30378;SDS011;17168;49.164;9.060;2024-03-02T06:55:23;31.30;;;14.75;;
30378;SDS011;17168;49.164;9.060;2024-03-02T06:57:58;22.30;;;11.75;;
30378;SDS011;17168;49.164;9.060;2024-03-02T07:00:30;19.50;;;9.00;;
30378;SDS011;17168;49.164;9.060;2024-03-02T07:03:03;18.02;;;9.23;;
30378;SDS011;17168;49.164;9.060;2024-03-02T07:05:35;18.13;;;8.85;;
30378;SDS011;17168;49.164;9.060;2024-03-02T07:08:08;18.58;;;8.10;;
30378;SDS011;17168;49.164;9.060;2024-03-02T07:10:40;16.45;;;7.63;;
30378;SDS011;17168;49.164;9.060;2024-03-02T07:13:15;17.77;;;8.35;;
30378;SDS011;17168;49.164;9.060;2024-03-02T07:15:47;16.63;;;8.75;;
30378;SDS011;17168;49.164;9.060;2024-03-02T07:18:35;18.08;;;9.43;;
30378;SDS011;17168;49.164;9.060;2024-03-02T07:21:12;16.73;;;8.60;;
30378;SDS011;17168;49.164;9.060;2024-03-02T07:23:44;15.75;;;7.78;;
30378;SDS011;17168;49.164;9.060;2024-03-02T07:26:16;15.00;;;8.27;;
30378;SDS011;17168;49.164;9.060;2024-03-02T07:28:57;17.58;;;8.27;;
30378;SDS011;17168;49.164;9.060;2024-03-02T07:31:30;15.98;;;7.80;;
30378;SDS011;17168;49.164;9.060;2024-03-02T07:34:02;17.40;;;8.68;;
30378;SDS011;17168;49.164;9.060;2024-03-02T07:36:35;15.60;;;7.30;;
30378;SDS011;17168;49.164;9.060;2024-03-02T07:39:08;14.88;;;7.45;;
30378;SDS011;17168;49.164;9.060;2024-03-02T07:41:41;16.25;;;8.15;;
30378;SDS011;17168;49.164;9.060;2024-03-02T07:44:16;17.13;;;8.88;;
30378;SDS011;17168;49.164;9.060;2024-03-02T07:46:50;16.42;;;8.25;;
30378;SDS011;17168;49.164;9.060;2024-03-02T07:49:22;17.90;;;9.38;;
30378;SDS011;17168;49.164;9.060;2024-03-02T07:51:55;15.63;;;8.02;;
30378;SDS011;17168;49.164;9.060;2024-03-02T07:54:27;13.18;;;7.28;;
30378;SDS011;17168;49.164;9.060;2024-03-02T07:56:59;16.88;;;8.02;;
30378;SDS011;17168;49.164;9.060;2024-03-02T07:59:34;12.48;;;6.25;;
30378;SDS011;17168;49.164;9.060;2024-03-02T08:02:07;15.40;;;7.20;;
30378;SDS011;17168;49.164;9.060;2024-03-02T08:04:39;15.18;;;7.35;;
30378;SDS011;17168;49.164;9.060;2024-03-02T08:07:11;12.68;;;7.28;;
30378;SDS011;17168;49.164;9.060;2024-03-02T08:09:44;13.57;;;6.63;;
30378;SDS011;17168;49.164;9.060;2024-03-02T08:12:17;21.35;;;9.30;;
30378;SDS011;17168;49.164;9.060;2024-03-02T08:14:53;26.67;;;12.50;;
30378;SDS011;17168;49.164;9.060;2024-03-02T08:17:26;17.58;;;7.82;;
30378;SDS011;17168;49.164;9.060;2024-03-02T08:19:58;13.07;;;7.20;;
30378;SDS011;17168;49.164;9.060;2024-03-02T08:22:31;14.30;;;7.97;;
30378;SDS011;17168;49.164;9.060;2024-03-02T08:25:03;14.20;;;7.22;;
30378;SDS011;17168;49.164;9.060;2024-03-02T08:27:36;12.63;;;6.45;;
30378;SDS011;17168;49.164;9.060;2024-03-02T08:30:13;13.10;;;6.45;;
30378;SDS011;17168;49.164;9.060;2024-03-02T08:32:52;14.55;;;6.90;;
30378;SDS011;17168;49.164;9.060;2024-03-02T08:35:24;11.52;;;5.82;;
30378;SDS011;17168;49.164;9.060;2024-03-02T08:37:57;12.43;;;6.68;;
30378;SDS011;17168;49.164;9.060;2024-03-02T08:40:29;11.60;;;6.03;;
30378;SDS011;17168;49.164;9.060;2024-03-02T08:43:03;11.15;;;5.55;;
30378;SDS011;17168;49.164;9.060;2024-03-02T08:45:38;12.18;;;6.32;;
30378;SDS011;17168;49.164;9.060;2024-03-02T08:48:11;11.00;;;5.13;;
30378;SDS011;17168;49.164;9.060;2024-03-02T08:50:43;12.00;;;5.03;;
30378;SDS011;17168;49.164;9.060;2024-03-02T08:53:15;11.07;;;6.15;;
30378;SDS011;17168;49.164;9.060;2024-03-02T08:55:50;7.85;;;4.70;;
30378;SDS011;17168;49.164;9.060;2024-03-02T08:58:22;8.52;;;4.75;;
30378;SDS011;17168;49.164;9.060;2024-03-02T09:00:57;9.23;;;4.90;;
30378;SDS011;17168;49.164;9.060;2024-03-02T09:03:29;8.07;;;5.00;;
30378;SDS011;17168;49.164;9.060;2024-03-02T09:06:05;9.05;;;5.15;;
30378;SDS011;17168;49.164;9.060;2024-03-02T09:08:37;8.98;;;5.07;;
30378;SDS011;17168;49.164;9.060;2024-03-02T09:11:10;9.07;;;5.07;;
30378;SDS011;17168;49.164;9.060;2024-03-02T09:13:43;10.25;;;5.03;;
30378;SDS011;17168;49.164;9.060;2024-03-02T09:16:18;10.20;;;5.18;;
30378;SDS011;17168;49.164;9.060;2024-03-02T09:18:51;12.15;;;4.50;;
30378;SDS011;17168;49.164;9.060;2024-03-02T09:21:23;10.90;;;5.68;;
30378;SDS011;17168;49.164;9.060;2024-03-02T09:23:57;10.07;;;4.85;;
30378;SDS011;17168;49.164;9.060;2024-03-02T09:26:29;8.15;;;3.70;;
30378;SDS011;17168;49.164;9.060;2024-03-02T09:29:02;6.57;;;4.22;;
30378;SDS011;17168;49.164;9.060;2024-03-02T09:31:41;7.68;;;4.38;;
30378;SDS011;17168;49.164;9.060;2024-03-02T09:34:13;6.30;;;3.80;;
30378;SDS011;17168;49.164;9.060;2024-03-02T09:36:47;7.55;;;4.38;;
30378;SDS011;17168;49.164;9.060;2024-03-02T09:39:19;8.73;;;4.32;;
30378;SDS011;17168;49.164;9.060;2024-03-02T09:41:52;6.78;;;3.60;;
30378;SDS011;17168;49.164;9.060;2024-03-02T09:44:24;7.20;;;4.03;;
30378;SDS011;17168;49.164;9.060;2024-03-02T09:47:00;7.97;;;3.95;;
30378;SDS011;17168;49.164;9.060;2024-03-02T09:49:32;7.50;;;4.10;;
30378;SDS011;17168;49.164;9.060;2024-03-02T09:52:04;7.50;;;3.83;;
30378;SDS011;17168;49.164;9.060;2024-03-02T09:54:38;6.35;;;3.80;;
30378;SDS011;17168;49.164;9.060;2024-03-02T09:57:10;8.25;;;4.28;;
30378;SDS011;17168;49.164;9.060;2024-03-02T09:59:42;8.68;;;4.20;;
30378;SDS011;17168;49.164;9.060;2024-03-02T10:02:19;5.72;;;3.08;;
30378;SDS011;17168;49.164;9.060;2024-03-02T10:04:51;7.30;;;3.72;;
30378;SDS011;17168;49.164;9.060;2024-03-02T10:07:23;7.82;;;3.50;;
30378;SDS011;17168;49.164;9.060;2024-03-02T10:09:55;5.38;;;2.90;;
30378;SDS011;17168;49.164;9.060;2024-03-02T10:12:28;6.47;;;3.10;;
30378;SDS011;17168;49.164;9.060;2024-03-02T10:15:02;6.38;;;3.63;;
30378;SDS011;17168;49.164;9.060;2024-03-02T10:17:39;7.05;;;3.75;;
30378;SDS011;17168;49.164;9.060;2024-03-02T10:20:21;6.55;;;3.53;;
30378;SDS011;17168;49.164;9.060;2024-03-02T10:22:54;7.65;;;4.28;;
30378;SDS011;17168;49.164;9.060;2024-03-02T10:25:33;6.50;;;3.58;;
30378;SDS011;17168;49.164;9.060;2024-03-02T10:28:08;6.90;;;4.00;;
30378;SDS011;17168;49.164;9.060;2024-03-02T10:30:41;6.88;;;3.60;;
30378;SDS011;17168;49.164;9.060;2024-03-02T10:33:17;6.63;;;3.90;;
30378;SDS011;17168;49.164;9.060;2024-03-02T10:35:49;6.00;;;3.25;;
30378;SDS011;17168;49.164;9.060;2024-03-02T10:38:22;5.47;;;3.22;;
30378;SDS011;17168;49.164;9.060;2024-03-02T10:40:54;5.70;;;3.38;;
30378;SDS011;17168;49.164;9.060;2024-03-02T10:43:28;6.93;;;3.95;;
30378;SDS011;17168;49.164;9.060;2024-03-02T10:46:00;5.63;;;3.08;;
30378;SDS011;17168;49.164;9.060;2024-03-02T10:48:35;3.55;;;2.03;;
30378;SDS011;17168;49.164;9.060;2024-03-02T10:51:14;5.18;;;2.72;;
30378;SDS011;17168;49.164;9.060;2024-03-02T10:53:46;4.65;;;2.08;;
30378;SDS011;17168;49.164;9.060;2024-03-02T10:56:21;4.93;;;2.58;;
30378;SDS011;17168;49.164;9.060;2024-03-02T10:59:02;4.85;;;2.50;;
30378;SDS011;17168;49.164;9.060;2024-03-02T11:01:38;4.85;;;2.60;;
30378;SDS011;17168;49.164;9.060;2024-03-02T11:04:14;4.60;;;3.00;;
30378;SDS011;17168;49.164;9.060;2024-03-02T11:06:48;7.75;;;3.28;;
30378;SDS011;17168;49.164;9.060;2024-03-02T11:09:22;6.38;;;3.08;;
30378;SDS011;17168;49.164;9.060;2024-03-02T11:12:00;5.90;;;2.67;;
30378;SDS011;17168;49.164;9.060;2024-03-02T11:14:34;4.65;;;2.75;;
30378;SDS011;17168;49.164;9.060;2024-03-02T11:19:50;6.30;;;2.47;;
30378;SDS011;17168;49.164;9.060;2024-03-02T11:22:22;5.40;;;2.53;;
30378;SDS011;17168;49.164;9.060;2024-03-02T11:24:55;3.67;;;2.17;;
30378;SDS011;17168;49.164;9.060;2024-03-02T11:33:24;6.05;;;2.63;;
30378;SDS011;17168;49.164;9.060;2024-03-02T11:36:02;3.30;;;1.92;;
30378;SDS011;17168;49.164;9.060;2024-03-02T11:38:35;4.32;;;2.75;;
30378;SDS011;17168;49.164;9.060;2024-03-02T11:41:08;6.13;;;3.30;;
30378;SDS011;17168;49.164;9.060;2024-03-02T11:43:40;5.30;;;3.22;;
30378;SDS011;17168;49.164;9.060;2024-03-02T11:46:15;5.97;;;3.80;;
30378;SDS011;17168;49.164;9.060;2024-03-02T11:48:48;4.47;;;3.08;;
30378;SDS011;17168;49.164;9.060;2024-03-02T11:51:23;3.70;;;2.38;;
30378;SDS011;17168;49.164;9.060;2024-03-02T11:53:55;4.28;;;1.95;;
30378;SDS011;17168;49.164;9.060;2024-03-02T11:56:29;4.45;;;3.03;;
30378;SDS011;17168;49.164;9.060;2024-03-02T11:59:03;4.45;;;2.47;;
30378;SDS011;17168;49.164;9.060;2024-03-02T12:01:36;3.70;;;2.88;;
30378;SDS011;17168;49.164;9.060;2024-03-02T12:04:08;3.55;;;3.03;;
30378;SDS011;17168;49.164;9.060;2024-03-02T12:06:44;3.42;;;2.85;;
30378;SDS011;17168;49.164;9.060;2024-03-02T12:09:18;3.55;;;2.92;;
30378;SDS011;17168;49.164;9.060;2024-03-02T12:12:00;3.67;;;2.75;;
30378;SDS011;17168;49.164;9.060;2024-03-02T12:14:34;5.68;;;3.97;;
30378;SDS011;17168;49.164;9.060;2024-03-02T12:17:08;3.55;;;2.58;;
30378;SDS011;17168;49.164;9.060;2024-03-02T12:19:40;2.47;;;2.20;;
30378;SDS011;17168;49.164;9.060;2024-03-02T12:22:14;4.53;;;4.13;;
30378;SDS011;17168;49.164;9.060;2024-03-02T12:24:47;4.22;;;3.65;;
30378;SDS011;17168;49.164;9.060;2024-03-02T12:27:19;3.40;;;3.10;;
30378;SDS011;17168;49.164;9.060;2024-03-02T12:29:52;3.58;;;2.67;;
30378;SDS011;17168;49.164;9.060;2024-03-02T12:32:25;3.90;;;2.33;;
30378;SDS011;17168;49.164;9.060;2024-03-02T12:34:58;6.60;;;4.78;;
30378;SDS011;17168;49.164;9.060;2024-03-02T12:37:37;2.47;;;2.17;;
30378;SDS011;17168;49.164;9.060;2024-03-02T12:40:15;2.22;;;1.95;;
30378;SDS011;17168;49.164;9.060;2024-03-02T12:42:51;2.22;;;1.90;;
30378;SDS011;17168;49.164;9.060;2024-03-02T12:45:23;2.15;;;1.95;;
30378;SDS011;17168;49.164;9.060;2024-03-02T12:47:57;2.83;;;2.58;;
30378;SDS011;17168;49.164;9.060;2024-03-02T12:50:31;1.98;;;1.40;;
30378;SDS011;17168;49.164;9.060;2024-03-02T12:53:07;1.27;;;1.17;;
30378;SDS011;17168;49.164;9.060;2024-03-02T12:55:45;1.05;;;0.82;;
30378;SDS011;17168;49.164;9.060;2024-03-02T12:58:18;1.00;;;0.90;;
30378;SDS011;17168;49.164;9.060;2024-03-02T13:01:05;1.65;;;1.48;;
30378;SDS011;17168;49.164;9.060;2024-03-02T13:03:38;4.80;;;2.90;;
30378;SDS011;17168;49.164;9.060;2024-03-02T13:06:10;2.35;;;2.15;;
30378;SDS011;17168;49.164;9.060;2024-03-02T13:08:45;2.40;;;1.80;;
30378;SDS011;17168;49.164;9.060;2024-03-02T13:11:20;3.22;;;2.80;;
30378;SDS011;17168;49.164;9.060;2024-03-02T13:13:54;2.17;;;1.88;;
30378;SDS011;17168;49.164;9.060;2024-03-02T13:16:26;1.33;;;1.23;;
30378;SDS011;17168;49.164;9.060;2024-03-02T13:19:07;4.25;;;1.83;;
30378;SDS011;17168;49.164;9.060;2024-03-02T13:21:39;1.63;;;1.00;;
30378;SDS011;17168;49.164;9.060;2024-03-02T13:24:14;1.83;;;1.73;;
30378;SDS011;17168;49.164;9.060;2024-03-02T13:26:46;1.50;;;1.40;;
30378;SDS011;17168;49.164;9.060;2024-03-02T13:29:18;1.25;;;0.98;;
30378;SDS011;17168;49.164;9.060;2024-03-02T13:31:51;0.70;;;0.60;;
30378;SDS011;17168;49.164;9.060;2024-03-02T13:34:24;0.85;;;0.68;;
30378;SDS011;17168;49.164;9.060;2024-03-02T13:36:56;0.98;;;0.93;;
30378;SDS011;17168;49.164;9.060;2024-03-02T13:39:31;0.95;;;0.95;;
30378;SDS011;17168;49.164;9.060;2024-03-02T13:42:03;0.90;;;0.73;;
30378;SDS011;17168;49.164;9.060;2024-03-02T13:44:38;1.27;;;0.80;;
30378;SDS011;17168;49.164;9.060;2024-03-02T13:47:11;1.35;;;1.25;;
30378;SDS011;17168;49.164;9.060;2024-03-02T13:49:43;1.10;;;0.88;;
30378;SDS011;17168;49.164;9.060;2024-03-02T13:52:17;1.27;;;0.98;;
30378;SDS011;17168;49.164;9.060;2024-03-02T13:54:52;1.13;;;1.13;;
30378;SDS011;17168;49.164;9.060;2024-03-02T13:57:24;1.10;;;0.93;;
30378;SDS011;17168;49.164;9.060;2024-03-02T13:59:59;0.55;;;0.50;;
30378;SDS011;17168;49.164;9.060;2024-03-02T14:02:33;2.00;;;0.90;;
30378;SDS011;17168;49.164;9.060;2024-03-02T14:05:05;0.80;;;0.60;;
30378;SDS011;17168;49.164;9.060;2024-03-02T14:07:39;1.60;;;0.98;;
30378;SDS011;17168;49.164;9.060;2024-03-02T14:10:14;2.20;;;1.08;;
30378;SDS011;17168;49.164;9.060;2024-03-02T14:12:47;1.30;;;1.05;;
30378;SDS011;17168;49.164;9.060;2024-03-02T14:15:19;1.10;;;0.55;;
30378;SDS011;17168;49.164;9.060;2024-03-02T14:17:52;0.75;;;0.40;;
30378;SDS011;17168;49.164;9.060;2024-03-02T14:20:24;2.13;;;0.73;;
30378;SDS011;17168;49.164;9.060;2024-03-02T14:22:56;1.65;;;0.35;;
30378;SDS011;17168;49.164;9.060;2024-03-02T14:25:32;1.60;;;1.02;;
30378;SDS011;17168;49.164;9.060;2024-03-02T14:28:05;0.80;;;0.50;;
30378;SDS011;17168;49.164;9.060;2024-03-02T14:30:57;1.23;;;0.32;;
30378;SDS011;17168;49.164;9.060;2024-03-02T14:33:32;1.00;;;0.28;;
30378;SDS011;17168;49.164;9.060;2024-03-02T14:36:06;0.70;;;0.20;;
30378;SDS011;17168;49.164;9.060;2024-03-02T14:38:38;0.65;;;0.28;;
30378;SDS011;17168;49.164;9.060;2024-03-02T14:41:13;1.23;;;0.40;;
30378;SDS011;17168;49.164;9.060;2024-03-02T14:43:45;0.75;;;0.38;;
30378;SDS011;17168;49.164;9.060;2024-03-02T14:46:18;0.80;;;0.38;;
30378;SDS011;17168;49.164;9.060;2024-03-02T14:48:50;0.57;;;0.10;;
30378;SDS011;17168;49.164;9.060;2024-03-02T14:51:23;0.77;;;0.60;;
30378;SDS011;17168;49.164;9.060;2024-03-02T14:53:55;1.55;;;0.40;;
30378;SDS011;17168;49.164;9.060;2024-03-02T14:56:30;0.52;;;0.30;;
30378;SDS011;17168;49.164;9.060;2024-03-02T14:59:02;1.52;;;0.22;;
30378;SDS011;17168;49.164;9.060;2024-03-02T15:01:34;1.13;;;0.30;;
30378;SDS011;17168;49.164;9.060;2024-03-02T15:04:07;1.98;;;0.50;;
30378;SDS011;17168;49.164;9.060;2024-03-02T15:06:39;0.80;;;0.32;;
30378;SDS011;17168;49.164;9.060;2024-03-02T15:09:11;0.88;;;0.50;;
30378;SDS011;17168;49.164;9.060;2024-03-02T15:11:46;3.50;;;0.90;;
30378;SDS011;17168;49.164;9.060;2024-03-02T15:14:18;1.08;;;0.22;;
30378;SDS011;17168;49.164;9.060;2024-03-02T15:16:51;0.93;;;0.45;;
30378;SDS011;17168;49.164;9.060;2024-03-02T15:19:23;2.13;;;0.50;;
30378;SDS011;17168;49.164;9.060;2024-03-02T15:21:55;1.98;;;0.65;;
30378;SDS011;17168;49.164;9.060;2024-03-02T15:24:27;1.77;;;0.65;;
30378;SDS011;17168;49.164;9.060;2024-03-02T15:27:02;0.68;;;0.68;;